sensor_id;sensor_type;location;lat;lon;timestamp;P1;durP1;ratioP1;P2;durP2;ratioP2
14766;SDS011;7475;53.558;9.970;2023-03-16T00:02:20;9.73;;;2.87;;
14766;SDS011;7475;53.558;9.970;2023-03-16T00:04:46;13.80;;;3.80;;
14766;SDS011;7475;53.558;9.970;2023-03-16T00:07:11;9.63;;;2.93;;
14766;SDS011;7475;53.558;9.970;2023-03-16T00:09:37;9.27;;;3.10;;
14766;SDS011;7475;53.558;9.970;2023-03-16T00:12:05;10.40;;;2.30;;
14766;SDS011;7475;53.558;9.970;2023-03-16T00:14:31;12.30;;;3.37;;
14766;SDS011;7475;53.558;9.970;2023-03-16T00:16:56;14.13;;;3.93;;
14766;SDS011;7475;53.558;9.970;2023-03-16T00:19:21;15.43;;;3.30;;
14766;SDS011;7475;53.558;9.970;2023-03-16T00:21:47;11.10;;;3.03;;
14766;SDS011;7475;53.558;9.970;2023-03-16T00:24:14;9.33;;;2.83;;
14766;SDS011;7475;53.558;9.970;2023-03-16T00:26:42;13.37;;;2.80;;
14766;SDS011;7475;53.558;9.970;2023-03-16T00:29:07;5.70;;;2.30;;
14766;SDS011;7475;53.558;9.970;2023-03-16T00:31:33;14.50;;;3.20;;
14766;SDS011;7475;53.558;9.970;2023-03-16T00:33:59;10.73;;;2.67;;
14766;SDS011;7475;53.558;9.970;2023-03-16T00:36:26;17.37;;;6.50;;
14766;SDS011;7475;53.558;9.970;2023-03-16T00:38:52;16.73;;;4.17;;
14766;SDS011;7475;53.558;9.970;2023-03-16T00:41:18;14.07;;;3.27;;
14766;SDS011;7475;53.558;9.970;2023-03-16T00:43:43;11.20;;;3.57;;
14766;SDS011;7475;53.558;9.970;2023-03-16T00:46:13;17.57;;;3.43;;
14766;SDS011;7475;53.558;9.970;2023-03-16T00:48:40;19.27;;;4.17;;
14766;SDS011;7475;53.558;9.970;2023-03-16T00:51:06;13.43;;;4.93;;
14766;SDS011;7475;53.558;9.970;2023-03-16T00:53:33;13.30;;;3.80;;
14766;SDS011;7475;53.558;9.970;2023-03-16T00:55:59;12.17;;;4.00;;
14766;SDS011;7475;53.558;9.970;2023-03-16T00:58:27;10.83;;;3.27;;
14766;SDS011;7475;53.558;9.970;2023-03-16T01:00:52;13.13;;;3.70;;
14766;SDS011;7475;53.558;9.970;2023-03-16T01:03:19;13.67;;;3.93;;
14766;SDS011;7475;53.558;9.970;2023-03-16T01:05:44;15.37;;;3.27;;
14766;SDS011;7475;53.558;9.970;2023-03-16T01:08:09;15.80;;;3.40;;
14766;SDS011;7475;53.558;9.970;2023-03-16T01:10:34;13.27;;;3.23;;
14766;SDS011;7475;53.558;9.970;2023-03-16T01:13:00;11.63;;;3.50;;
14766;SDS011;7475;53.558;9.970;2023-03-16T01:15:27;8.90;;;3.17;;
14766;SDS011;7475;53.558;9.970;2023-03-16T01:17:52;13.63;;;3.50;;
14766;SDS011;7475;53.558;9.970;2023-03-16T01:20:18;8.63;;;3.37;;
14766;SDS011;7475;53.558;9.970;2023-03-16T01:22:43;10.53;;;3.90;;
14766;SDS011;7475;53.558;9.970;2023-03-16T01:25:10;18.37;;;3.63;;
14766;SDS011;7475;53.558;9.970;2023-03-16T01:27:35;13.43;;;3.47;;
14766;SDS011;7475;53.558;9.970;2023-03-16T01:30:02;14.53;;;4.20;;
14766;SDS011;7475;53.558;9.970;2023-03-16T01:32:27;12.37;;;3.77;;
14766;SDS011;7475;53.558;9.970;2023-03-16T01:34:52;12.83;;;4.37;;
14766;SDS011;7475;53.558;9.970;2023-03-16T01:37:17;12.47;;;3.40;;
14766;SDS011;7475;53.558;9.970;2023-03-16T01:39:42;9.93;;;3.37;;
14766;SDS011;7475;53.558;9.970;2023-03-16T01:42:08;8.53;;;3.10;;
14766;SDS011;7475;53.558;9.970;2023-03-16T01:44:49;7.87;;;3.27;;
14766;SDS011;7475;53.558;9.970;2023-03-16T01:47:15;10.73;;;3.67;;
14766;SDS011;7475;53.558;9.970;2023-03-16T01:49:40;7.83;;;3.07;;
14766;SDS011;7475;53.558;9.970;2023-03-16T01:52:06;11.60;;;3.37;;
14766;SDS011;7475;53.558;9.970;2023-03-16T01:57:17;5.87;;;3.23;;
14766;SDS011;7475;53.558;9.970;2023-03-16T01:59:47;11.50;;;3.73;;
14766;SDS011;7475;53.558;9.970;2023-03-16T02:02:14;10.83;;;4.03;;
14766;SDS011;7475;53.558;9.970;2023-03-16T02:04:47;7.70;;;3.70;;
14766;SDS011;7475;53.558;9.970;2023-03-16T02:07:13;11.07;;;3.70;;
14766;SDS011;7475;53.558;9.970;2023-03-16T02:09:41;11.70;;;3.60;;
14766;SDS011;7475;53.558;9.970;2023-03-16T02:12:08;10.20;;;3.77;;
14766;SDS011;7475;53.558;9.970;2023-03-16T02:14:34;8.43;;;3.80;;
14766;SDS011;7475;53.558;9.970;2023-03-16T02:16:59;9.30;;;3.83;;
14766;SDS011;7475;53.558;9.970;2023-03-16T02:22:02;8.80;;;3.73;;
14766;SDS011;7475;53.558;9.970;2023-03-16T02:24:30;8.83;;;3.70;;
14766;SDS011;7475;53.558;9.970;2023-03-16T02:27:03;13.10;;;3.57;;
14766;SDS011;7475;53.558;9.970;2023-03-16T02:32:13;8.70;;;3.60;;
14766;SDS011;7475;53.558;9.970;2023-03-16T02:34:38;8.63;;;3.47;;
14766;SDS011;7475;53.558;9.970;2023-03-16T02:37:04;7.10;;;3.50;;
14766;SDS011;7475;53.558;9.970;2023-03-16T02:39:30;7.93;;;3.50;;
14766;SDS011;7475;53.558;9.970;2023-03-16T02:41:55;8.20;;;3.73;;
14766;SDS011;7475;53.558;9.970;2023-03-16T02:44:24;9.47;;;3.77;;
14766;SDS011;7475;53.558;9.970;2023-03-16T02:46:51;6.07;;;3.00;;
14766;SDS011;7475;53.558;9.970;2023-03-16T02:49:20;6.77;;;3.37;;
14766;SDS011;7475;53.558;9.970;2023-03-16T02:51:48;7.00;;;2.90;;
14766;SDS011;7475;53.558;9.970;2023-03-16T02:54:14;6.87;;;3.13;;
14766;SDS011;7475;53.558;9.970;2023-03-16T02:56:39;8.93;;;3.40;;
14766;SDS011;7475;53.558;9.970;2023-03-16T02:59:04;8.20;;;2.73;;
14766;SDS011;7475;53.558;9.970;2023-03-16T03:01:30;10.77;;;3.53;;
14766;SDS011;7475;53.558;9.970;2023-03-16T03:03:56;4.47;;;2.57;;
14766;SDS011;7475;53.558;9.970;2023-03-16T03:06:21;6.97;;;3.07;;
14766;SDS011;7475;53.558;9.970;2023-03-16T03:08:49;8.87;;;2.93;;
14766;SDS011;7475;53.558;9.970;2023-03-16T03:11:14;11.87;;;3.40;;
14766;SDS011;7475;53.558;9.970;2023-03-16T03:13:39;5.27;;;2.47;;
14766;SDS011;7475;53.558;9.970;2023-03-16T03:16:07;6.47;;;2.30;;
14766;SDS011;7475;53.558;9.970;2023-03-16T03:18:32;6.07;;;2.10;;
14766;SDS011;7475;53.558;9.970;2023-03-16T03:20:58;5.37;;;2.10;;
14766;SDS011;7475;53.558;9.970;2023-03-16T03:23:23;4.50;;;2.40;;
14766;SDS011;7475;53.558;9.970;2023-03-16T03:25:49;6.23;;;2.23;;
14766;SDS011;7475;53.558;9.970;2023-03-16T03:28:14;8.70;;;2.37;;
14766;SDS011;7475;53.558;9.970;2023-03-16T03:30:39;4.47;;;1.70;;
14766;SDS011;7475;53.558;9.970;2023-03-16T03:33:05;5.97;;;2.27;;
14766;SDS011;7475;53.558;9.970;2023-03-16T03:35:30;5.93;;;1.90;;
14766;SDS011;7475;53.558;9.970;2023-03-16T03:37:56;5.83;;;2.30;;
14766;SDS011;7475;53.558;9.970;2023-03-16T03:40:21;7.50;;;2.57;;
14766;SDS011;7475;53.558;9.970;2023-03-16T03:42:46;3.80;;;1.97;;
14766;SDS011;7475;53.558;9.970;2023-03-16T03:45:12;6.83;;;1.73;;
14766;SDS011;7475;53.558;9.970;2023-03-16T03:47:38;5.60;;;1.70;;
14766;SDS011;7475;53.558;9.970;2023-03-16T03:50:03;5.97;;;2.30;;
14766;SDS011;7475;53.558;9.970;2023-03-16T03:52:29;5.37;;;2.20;;
14766;SDS011;7475;53.558;9.970;2023-03-16T03:54:54;3.23;;;1.50;;
14766;SDS011;7475;53.558;9.970;2023-03-16T03:57:20;6.43;;;1.73;;
14766;SDS011;7475;53.558;9.970;2023-03-16T03:59:45;5.07;;;2.00;;
14766;SDS011;7475;53.558;9.970;2023-03-16T04:02:10;6.17;;;1.90;;
14766;SDS011;7475;53.558;9.970;2023-03-16T04:04:35;5.43;;;2.10;;
14766;SDS011;7475;53.558;9.970;2023-03-16T04:07:01;5.83;;;2.20;;
14766;SDS011;7475;53.558;9.970;2023-03-16T04:09:27;6.47;;;2.10;;
14766;SDS011;7475;53.558;9.970;2023-03-16T04:11:53;5.07;;;1.73;;
14766;SDS011;7475;53.558;9.970;2023-03-16T04:14:21;5.17;;;2.00;;
14766;SDS011;7475;53.558;9.970;2023-03-16T04:16:46;4.97;;;1.90;;
14766;SDS011;7475;53.558;9.970;2023-03-16T04:19:12;6.97;;;2.30;;
14766;SDS011;7475;53.558;9.970;2023-03-16T04:21:37;4.77;;;1.93;;
14766;SDS011;7475;53.558;9.970;2023-03-16T04:24:02;3.80;;;2.00;;
14766;SDS011;7475;53.558;9.970;2023-03-16T04:26:29;6.13;;;1.97;;
14766;SDS011;7475;53.558;9.970;2023-03-16T04:28:54;6.30;;;1.90;;
14766;SDS011;7475;53.558;9.970;2023-03-16T04:31:19;4.07;;;1.80;;
14766;SDS011;7475;53.558;9.970;2023-03-16T04:33:45;6.73;;;2.20;;
14766;SDS011;7475;53.558;9.970;2023-03-16T04:36:10;9.13;;;2.70;;
14766;SDS011;7475;53.558;9.970;2023-03-16T04:38:36;6.17;;;2.17;;
14766;SDS011;7475;53.558;9.970;2023-03-16T04:41:02;4.33;;;2.03;;
14766;SDS011;7475;53.558;9.970;2023-03-16T04:43:27;3.90;;;2.10;;
14766;SDS011;7475;53.558;9.970;2023-03-16T04:45:53;4.87;;;2.27;;
14766;SDS011;7475;53.558;9.970;2023-03-16T04:48:18;5.83;;;1.90;;
14766;SDS011;7475;53.558;9.970;2023-03-16T04:50:44;9.27;;;2.30;;
14766;SDS011;7475;53.558;9.970;2023-03-16T04:53:09;6.03;;;1.80;;
14766;SDS011;7475;53.558;9.970;2023-03-16T04:55:34;13.80;;;3.53;;
14766;SDS011;7475;53.558;9.970;2023-03-16T04:57:59;7.33;;;2.03;;
14766;SDS011;7475;53.558;9.970;2023-03-16T05:00:25;5.13;;;1.60;;
14766;SDS011;7475;53.558;9.970;2023-03-16T05:02:50;6.17;;;1.43;;
14766;SDS011;7475;53.558;9.970;2023-03-16T05:05:16;6.67;;;2.37;;
14766;SDS011;7475;53.558;9.970;2023-03-16T05:07:42;7.17;;;1.87;;
14766;SDS011;7475;53.558;9.970;2023-03-16T05:10:08;5.60;;;2.03;;
14766;SDS011;7475;53.558;9.970;2023-03-16T05:12:33;3.73;;;1.63;;
14766;SDS011;7475;53.558;9.970;2023-03-16T05:14:58;7.63;;;2.10;;
14766;SDS011;7475;53.558;9.970;2023-03-16T05:17:24;6.13;;;2.10;;
14766;SDS011;7475;53.558;9.970;2023-03-16T05:19:49;4.90;;;1.80;;
14766;SDS011;7475;53.558;9.970;2023-03-16T05:22:14;6.27;;;2.10;;
14766;SDS011;7475;53.558;9.970;2023-03-16T05:24:40;4.97;;;2.17;;
14766;SDS011;7475;53.558;9.970;2023-03-16T05:27:05;4.63;;;2.37;;
14766;SDS011;7475;53.558;9.970;2023-03-16T05:29:30;7.80;;;2.17;;
14766;SDS011;7475;53.558;9.970;2023-03-16T05:31:56;9.17;;;2.13;;
14766;SDS011;7475;53.558;9.970;2023-03-16T05:34:21;6.13;;;2.53;;
14766;SDS011;7475;53.558;9.970;2023-03-16T05:36:46;3.63;;;2.10;;
14766;SDS011;7475;53.558;9.970;2023-03-16T05:39:11;5.10;;;2.63;;
14766;SDS011;7475;53.558;9.970;2023-03-16T05:41:37;6.63;;;2.50;;
14766;SDS011;7475;53.558;9.970;2023-03-16T05:44:02;6.40;;;2.83;;
14766;SDS011;7475;53.558;9.970;2023-03-16T05:46:28;7.33;;;2.83;;
14766;SDS011;7475;53.558;9.970;2023-03-16T05:48:53;5.73;;;2.50;;
14766;SDS011;7475;53.558;9.970;2023-03-16T05:51:18;7.63;;;3.07;;
14766;SDS011;7475;53.558;9.970;2023-03-16T05:53:44;6.77;;;2.43;;
14766;SDS011;7475;53.558;9.970;2023-03-16T05:56:11;7.67;;;2.90;;
14766;SDS011;7475;53.558;9.970;2023-03-16T05:58:36;7.43;;;2.70;;
14766;SDS011;7475;53.558;9.970;2023-03-16T06:01:01;10.77;;;2.73;;
14766;SDS011;7475;53.558;9.970;2023-03-16T06:03:27;5.27;;;2.33;;
14766;SDS011;7475;53.558;9.970;2023-03-16T06:05:52;6.90;;;2.40;;
14766;SDS011;7475;53.558;9.970;2023-03-16T06:08:17;14.87;;;3.00;;
14766;SDS011;7475;53.558;9.970;2023-03-16T06:10:42;7.57;;;2.80;;
14766;SDS011;7475;53.558;9.970;2023-03-16T06:13:10;5.00;;;2.30;;
14766;SDS011;7475;53.558;9.970;2023-03-16T06:15:35;8.27;;;2.73;;
14766;SDS011;7475;53.558;9.970;2023-03-16T06:18:00;5.07;;;2.50;;
14766;SDS011;7475;53.558;9.970;2023-03-16T06:20:25;6.07;;;2.20;;
14766;SDS011;7475;53.558;9.970;2023-03-16T06:22:50;5.77;;;2.47;;
14766;SDS011;7475;53.558;9.970;2023-03-16T06:25:16;5.30;;;2.40;;
14766;SDS011;7475;53.558;9.970;2023-03-16T06:27:41;7.30;;;2.67;;
14766;SDS011;7475;53.558;9.970;2023-03-16T06:30:07;6.33;;;2.77;;
14766;SDS011;7475;53.558;9.970;2023-03-16T06:32:33;6.00;;;2.50;;
14766;SDS011;7475;53.558;9.970;2023-03-16T06:34:59;9.30;;;3.30;;
14766;SDS011;7475;53.558;9.970;2023-03-16T06:37:26;7.57;;;2.70;;
14766;SDS011;7475;53.558;9.970;2023-03-16T06:39:52;9.03;;;2.53;;
14766;SDS011;7475;53.558;9.970;2023-03-16T06:42:17;8.27;;;3.27;;
14766;SDS011;7475;53.558;9.970;2023-03-16T06:44:42;8.70;;;2.37;;
14766;SDS011;7475;53.558;9.970;2023-03-16T06:47:08;7.67;;;2.83;;
14766;SDS011;7475;53.558;9.970;2023-03-16T06:49:34;12.73;;;3.00;;
14766;SDS011;7475;53.558;9.970;2023-03-16T06:51:59;8.93;;;3.17;;
14766;SDS011;7475;53.558;9.970;2023-03-16T06:54:25;6.23;;;3.13;;
14766;SDS011;7475;53.558;9.970;2023-03-16T06:56:51;8.17;;;3.50;;
14766;SDS011;7475;53.558;9.970;2023-03-16T06:59:16;6.43;;;2.60;;
14766;SDS011;7475;53.558;9.970;2023-03-16T07:01:41;5.33;;;2.70;;
14766;SDS011;7475;53.558;9.970;2023-03-16T07:04:08;7.80;;;3.53;;
14766;SDS011;7475;53.558;9.970;2023-03-16T07:06:33;11.57;;;3.83;;
14766;SDS011;7475;53.558;9.970;2023-03-16T07:08:58;9.70;;;3.67;;
14766;SDS011;7475;53.558;9.970;2023-03-16T07:11:25;10.33;;;3.20;;
14766;SDS011;7475;53.558;9.970;2023-03-16T07:13:50;7.97;;;3.03;;
14766;SDS011;7475;53.558;9.970;2023-03-16T07:16:16;8.27;;;2.93;;
14766;SDS011;7475;53.558;9.970;2023-03-16T07:18:41;7.13;;;3.00;;
14766;SDS011;7475;53.558;9.970;2023-03-16T07:21:08;7.57;;;2.93;;
14766;SDS011;7475;53.558;9.970;2023-03-16T07:23:33;8.30;;;3.10;;
14766;SDS011;7475;53.558;9.970;2023-03-16T07:25:58;8.33;;;2.53;;
14766;SDS011;7475;53.558;9.970;2023-03-16T07:28:24;7.10;;;2.67;;
14766;SDS011;7475;53.558;9.970;2023-03-16T07:30:50;11.23;;;2.50;;
14766;SDS011;7475;53.558;9.970;2023-03-16T07:33:16;6.37;;;2.77;;
14766;SDS011;7475;53.558;9.970;2023-03-16T07:35:41;6.57;;;2.40;;
14766;SDS011;7475;53.558;9.970;2023-03-16T07:38:06;7.73;;;2.90;;
14766;SDS011;7475;53.558;9.970;2023-03-16T07:40:34;5.93;;;2.30;;
14766;SDS011;7475;53.558;9.970;2023-03-16T07:43:00;12.57;;;2.47;;
14766;SDS011;7475;53.558;9.970;2023-03-16T07:45:25;5.93;;;2.10;;
14766;SDS011;7475;53.558;9.970;2023-03-16T07:47:50;6.43;;;2.60;;
14766;SDS011;7475;53.558;9.970;2023-03-16T07:50:15;4.87;;;2.37;;
14766;SDS011;7475;53.558;9.970;2023-03-16T07:52:43;10.02;;;2.50;;
14766;SDS011;7475;53.558;9.970;2023-03-16T07:55:08;5.73;;;2.17;;
14766;SDS011;7475;53.558;9.970;2023-03-16T07:57:34;4.97;;;2.00;;
14766;SDS011;7475;53.558;9.970;2023-03-16T07:59:59;6.07;;;2.30;;
14766;SDS011;7475;53.558;9.970;2023-03-16T08:02:26;8.15;;;2.63;;
14766;SDS011;7475;53.558;9.970;2023-03-16T08:04:52;4.13;;;1.70;;
14766;SDS011;7475;53.558;9.970;2023-03-16T08:07:17;5.47;;;2.25;;
14766;SDS011;7475;53.558;9.970;2023-03-16T08:09:42;5.20;;;2.08;;
14766;SDS011;7475;53.558;9.970;2023-03-16T08:12:08;7.38;;;2.20;;
14766;SDS011;7475;53.558;9.970;2023-03-16T08:14:33;6.07;;;2.60;;
14766;SDS011;7475;53.558;9.970;2023-03-16T08:17:03;5.22;;;2.10;;
14766;SDS011;7475;53.558;9.970;2023-03-16T08:19:28;6.72;;;3.05;;
14766;SDS011;7475;53.558;9.970;2023-03-16T08:21:53;6.90;;;2.30;;
14766;SDS011;7475;53.558;9.970;2023-03-16T08:24:19;5.63;;;2.65;;
14766;SDS011;7475;53.558;9.970;2023-03-16T08:26:44;4.93;;;2.42;;
14766;SDS011;7475;53.558;9.970;2023-03-16T08:29:09;6.78;;;2.30;;
14766;SDS011;7475;53.558;9.970;2023-03-16T08:31:34;6.20;;;2.72;;
14766;SDS011;7475;53.558;9.970;2023-03-16T08:34:00;4.82;;;2.10;;
14766;SDS011;7475;53.558;9.970;2023-03-16T08:36:25;3.88;;;1.65;;
14766;SDS011;7475;53.558;9.970;2023-03-16T08:38:53;4.53;;;2.05;;
14766;SDS011;7475;53.558;9.970;2023-03-16T08:41:19;5.10;;;1.90;;
14766;SDS011;7475;53.558;9.970;2023-03-16T08:43:44;5.25;;;2.15;;
14766;SDS011;7475;53.558;9.970;2023-03-16T08:46:10;5.80;;;2.20;;
14766;SDS011;7475;53.558;9.970;2023-03-16T08:48:37;5.63;;;2.20;;
14766;SDS011;7475;53.558;9.970;2023-03-16T08:51:02;6.00;;;2.75;;
14766;SDS011;7475;53.558;9.970;2023-03-16T08:53:27;6.93;;;2.72;;
14766;SDS011;7475;53.558;9.970;2023-03-16T08:55:59;5.80;;;2.20;;
14766;SDS011;7475;53.558;9.970;2023-03-16T08:58:25;8.23;;;2.40;;
14766;SDS011;7475;53.558;9.970;2023-03-16T09:00:50;5.37;;;2.10;;
14766;SDS011;7475;53.558;9.970;2023-03-16T09:03:16;4.43;;;1.98;;
14766;SDS011;7475;53.558;9.970;2023-03-16T09:05:41;6.87;;;2.63;;
14766;SDS011;7475;53.558;9.970;2023-03-16T09:08:06;6.75;;;2.75;;
14766;SDS011;7475;53.558;9.970;2023-03-16T09:10:32;5.95;;;2.33;;
14766;SDS011;7475;53.558;9.970;2023-03-16T09:12:57;4.18;;;1.80;;
14766;SDS011;7475;53.558;9.970;2023-03-16T09:15:23;6.37;;;2.30;;
14766;SDS011;7475;53.558;9.970;2023-03-16T09:17:48;4.20;;;2.33;;
14766;SDS011;7475;53.558;9.970;2023-03-16T09:20:14;5.50;;;1.70;;
14766;SDS011;7475;53.558;9.970;2023-03-16T09:22:41;5.60;;;2.33;;
14766;SDS011;7475;53.558;9.970;2023-03-16T09:25:06;5.75;;;2.53;;
14766;SDS011;7475;53.558;9.970;2023-03-16T09:27:32;8.07;;;2.55;;
14766;SDS011;7475;53.558;9.970;2023-03-16T09:29:58;5.90;;;2.45;;
14766;SDS011;7475;53.558;9.970;2023-03-16T09:32:24;10.80;;;2.78;;
14766;SDS011;7475;53.558;9.970;2023-03-16T09:34:50;7.70;;;2.05;;
14766;SDS011;7475;53.558;9.970;2023-03-16T09:37:15;5.97;;;2.00;;
14766;SDS011;7475;53.558;9.970;2023-03-16T09:39:40;5.23;;;1.73;;
14766;SDS011;7475;53.558;9.970;2023-03-16T09:42:52;6.20;;;2.50;;
14766;SDS011;7475;53.558;9.970;2023-03-16T09:44:54;4.95;;;2.15;;
14766;SDS011;7475;53.558;9.970;2023-03-16T09:47:22;4.45;;;1.73;;
14766;SDS011;7475;53.558;9.970;2023-03-16T09:49:49;3.05;;;1.58;;
14766;SDS011;7475;53.558;9.970;2023-03-16T09:57:33;4.95;;;1.67;;
14766;SDS011;7475;53.558;9.970;2023-03-16T10:00:05;4.85;;;1.48;;
14766;SDS011;7475;53.558;9.970;2023-03-16T10:02:40;4.28;;;1.38;;
14766;SDS011;7475;53.558;9.970;2023-03-16T10:05:08;3.05;;;1.40;;
14766;SDS011;7475;53.558;9.970;2023-03-16T10:07:56;3.35;;;1.20;;
14766;SDS011;7475;53.558;9.970;2023-03-16T10:13:11;4.88;;;1.95;;
14766;SDS011;7475;53.558;9.970;2023-03-16T10:15:38;3.20;;;1.30;;
14766;SDS011;7475;53.558;9.970;2023-03-16T10:18:06;4.90;;;1.40;;
14766;SDS011;7475;53.558;9.970;2023-03-16T10:20:34;2.80;;;1.25;;
14766;SDS011;7475;53.558;9.970;2023-03-16T10:23:06;4.47;;;1.38;;
14766;SDS011;7475;53.558;9.970;2023-03-16T10:25:38;3.53;;;1.45;;
14766;SDS011;7475;53.558;9.970;2023-03-16T10:28:05;5.28;;;1.50;;
14766;SDS011;7475;53.558;9.970;2023-03-16T10:30:32;3.70;;;1.30;;
14766;SDS011;7475;53.558;9.970;2023-03-16T10:33:01;3.75;;;1.48;;
14766;SDS011;7475;53.558;9.970;2023-03-16T10:37:55;4.68;;;1.75;;
14766;SDS011;7475;53.558;9.970;2023-03-16T10:40:21;3.58;;;1.50;;
14766;SDS011;7475;53.558;9.970;2023-03-16T10:42:47;2.45;;;1.17;;
14766;SDS011;7475;53.558;9.970;2023-03-16T10:45:19;2.83;;;1.08;;
14766;SDS011;7475;53.558;9.970;2023-03-16T10:47:46;5.60;;;1.17;;
14766;SDS011;7475;53.558;9.970;2023-03-16T10:50:12;3.90;;;1.40;;
14766;SDS011;7475;53.558;9.970;2023-03-16T10:52:42;3.63;;;1.30;;
14766;SDS011;7475;53.558;9.970;2023-03-16T10:55:09;2.08;;;0.90;;
14766;SDS011;7475;53.558;9.970;2023-03-16T10:57:35;9.23;;;1.30;;
14766;SDS011;7475;53.558;9.970;2023-03-16T11:00:06;3.80;;;1.52;;
14766;SDS011;7475;53.558;9.970;2023-03-16T11:02:33;3.17;;;1.15;;
14766;SDS011;7475;53.558;9.970;2023-03-16T11:05:10;2.85;;;1.13;;
14766;SDS011;7475;53.558;9.970;2023-03-16T11:07:35;2.55;;;0.73;;
14766;SDS011;7475;53.558;9.970;2023-03-16T11:10:10;4.67;;;0.87;;
14766;SDS011;7475;53.558;9.970;2023-03-16T11:12:37;2.50;;;1.00;;
14766;SDS011;7475;53.558;9.970;2023-03-16T11:15:12;6.25;;;0.98;;
14766;SDS011;7475;53.558;9.970;2023-03-16T11:17:42;7.28;;;1.45;;
14766;SDS011;7475;53.558;9.970;2023-03-16T11:20:09;4.95;;;1.48;;
14766;SDS011;7475;53.558;9.970;2023-03-16T11:22:38;2.78;;;1.30;;
14766;SDS011;7475;53.558;9.970;2023-03-16T11:26:06;4.32;;;1.40;;
14766;SDS011;7475;53.558;9.970;2023-03-16T11:28:08;2.13;;;0.93;;
14766;SDS011;7475;53.558;9.970;2023-03-16T11:30:40;3.53;;;1.08;;
14766;SDS011;7475;53.558;9.970;2023-03-16T11:33:08;3.63;;;1.20;;
14766;SDS011;7475;53.558;9.970;2023-03-16T11:38:18;3.08;;;1.13;;
14766;SDS011;7475;53.558;9.970;2023-03-16T11:40:57;3.38;;;1.17;;
14766;SDS011;7475;53.558;9.970;2023-03-16T11:46:13;4.15;;;1.50;;
14766;SDS011;7475;53.558;9.970;2023-03-16T11:48:52;4.57;;;1.48;;
14766;SDS011;7475;53.558;9.970;2023-03-16T11:54:30;2.10;;;1.10;;
14766;SDS011;7475;53.558;9.970;2023-03-16T11:56:38;1.70;;;0.90;;
14766;SDS011;7475;53.558;9.970;2023-03-16T12:06:52;1.40;;;0.90;;
14766;SDS011;7475;53.558;9.970;2023-03-16T12:12:01;1.75;;;0.85;;
14766;SDS011;7475;53.558;9.970;2023-03-16T12:14:33;2.97;;;0.85;;
14766;SDS011;7475;53.558;9.970;2023-03-16T12:17:07;3.40;;;1.00;;
14766;SDS011;7475;53.558;9.970;2023-03-16T12:19:42;2.58;;;1.00;;
14766;SDS011;7475;53.558;9.970;2023-03-16T12:22:17;2.75;;;0.85;;
14766;SDS011;7475;53.558;9.970;2023-03-16T12:24:44;1.88;;;0.80;;
14766;SDS011;7475;53.558;9.970;2023-03-16T12:27:13;2.42;;;1.20;;
14766;SDS011;7475;53.558;9.970;2023-03-16T12:29:54;2.45;;;0.85;;
14766;SDS011;7475;53.558;9.970;2023-03-16T12:32:24;4.22;;;1.00;;
14766;SDS011;7475;53.558;9.970;2023-03-16T12:35:09;1.85;;;1.13;;
14766;SDS011;7475;53.558;9.970;2023-03-16T12:37:44;4.40;;;0.60;;
14766;SDS011;7475;53.558;9.970;2023-03-16T12:40:32;5.43;;;1.20;;
14766;SDS011;7475;53.558;9.970;2023-03-16T12:43:02;4.35;;;0.95;;
14766;SDS011;7475;53.558;9.970;2023-03-16T12:48:20;1.45;;;1.05;;
14766;SDS011;7475;53.558;9.970;2023-03-16T12:50:50;2.88;;;1.20;;
14766;SDS011;7475;53.558;9.970;2023-03-16T12:53:28;3.50;;;0.80;;
14766;SDS011;7475;53.558;9.970;2023-03-16T12:56:04;4.93;;;1.52;;
14766;SDS011;7475;53.558;9.970;2023-03-16T12:58:29;1.63;;;1.00;;
14766;SDS011;7475;53.558;9.970;2023-03-16T13:00:55;3.60;;;1.27;;
14766;SDS011;7475;53.558;9.970;2023-03-16T13:03:21;1.90;;;0.77;;
14766;SDS011;7475;53.558;9.970;2023-03-16T13:05:51;2.55;;;1.00;;
14766;SDS011;7475;53.558;9.970;2023-03-16T13:08:18;1.90;;;0.40;;
14766;SDS011;7475;53.558;9.970;2023-03-16T13:10:59;4.40;;;1.00;;
14766;SDS011;7475;53.558;9.970;2023-03-16T13:13:25;2.08;;;1.33;;
14766;SDS011;7475;53.558;9.970;2023-03-16T13:16:00;1.85;;;0.60;;
14766;SDS011;7475;53.558;9.970;2023-03-16T13:18:32;1.17;;;0.68;;
14766;SDS011;7475;53.558;9.970;2023-03-16T13:20:59;2.72;;;0.80;;
14766;SDS011;7475;53.558;9.970;2023-03-16T13:28:35;2.00;;;1.15;;
14766;SDS011;7475;53.558;9.970;2023-03-16T13:31:01;1.73;;;0.90;;
14766;SDS011;7475;53.558;9.970;2023-03-16T13:33:28;4.70;;;1.17;;
14766;SDS011;7475;53.558;9.970;2023-03-16T13:35:55;2.55;;;1.27;;
14766;SDS011;7475;53.558;9.970;2023-03-16T13:38:21;2.85;;;1.02;;
14766;SDS011;7475;53.558;9.970;2023-03-16T13:40:51;4.35;;;1.85;;
14766;SDS011;7475;53.558;9.970;2023-03-16T13:43:26;3.28;;;1.05;;
14766;SDS011;7475;53.558;9.970;2023-03-16T13:45:53;1.20;;;0.47;;
14766;SDS011;7475;53.558;9.970;2023-03-16T13:48:18;2.22;;;0.77;;
14766;SDS011;7475;53.558;9.970;2023-03-16T13:50:44;1.33;;;0.60;;
14766;SDS011;7475;53.558;9.970;2023-03-16T13:53:18;1.90;;;0.52;;
14766;SDS011;7475;53.558;9.970;2023-03-16T13:55:45;2.90;;;1.00;;
14766;SDS011;7475;53.558;9.970;2023-03-16T13:58:18;2.40;;;0.80;;
14766;SDS011;7475;53.558;9.970;2023-03-16T14:00:44;2.33;;;0.93;;
14766;SDS011;7475;53.558;9.970;2023-03-16T14:03:14;3.95;;;1.20;;
14766;SDS011;7475;53.558;9.970;2023-03-16T14:05:40;5.18;;;1.73;;
14766;SDS011;7475;53.558;9.970;2023-03-16T14:08:13;3.53;;;1.02;;
14766;SDS011;7475;53.558;9.970;2023-03-16T14:10:39;2.35;;;0.70;;
14766;SDS011;7475;53.558;9.970;2023-03-16T14:13:20;7.90;;;1.45;;
14766;SDS011;7475;53.558;9.970;2023-03-16T14:15:46;1.88;;;0.85;;
14766;SDS011;7475;53.558;9.970;2023-03-16T14:18:15;3.15;;;1.00;;
14766;SDS011;7475;53.558;9.970;2023-03-16T14:20:45;3.55;;;1.00;;
14766;SDS011;7475;53.558;9.970;2023-03-16T14:23:18;1.65;;;0.60;;
14766;SDS011;7475;53.558;9.970;2023-03-16T14:25:44;1.98;;;0.75;;
14766;SDS011;7475;53.558;9.970;2023-03-16T14:28:12;1.70;;;0.70;;
14766;SDS011;7475;53.558;9.970;2023-03-16T14:30:38;2.05;;;0.60;;
14766;SDS011;7475;53.558;9.970;2023-03-16T14:33:26;2.03;;;0.77;;
14766;SDS011;7475;53.558;9.970;2023-03-16T14:35:54;2.13;;;0.70;;
14766;SDS011;7475;53.558;9.970;2023-03-16T14:40:52;4.97;;;0.73;;
14766;SDS011;7475;53.558;9.970;2023-03-16T14:43:18;1.45;;;0.70;;
14766;SDS011;7475;53.558;9.970;2023-03-16T14:45:45;4.00;;;0.70;;
14766;SDS011;7475;53.558;9.970;2023-03-16T14:48:13;2.13;;;0.73;;
14766;SDS011;7475;53.558;9.970;2023-03-16T14:50:43;1.85;;;0.80;;
14766;SDS011;7475;53.558;9.970;2023-03-16T14:53:09;1.83;;;0.63;;
14766;SDS011;7475;53.558;9.970;2023-03-16T14:55:35;2.08;;;0.65;;
14766;SDS011;7475;53.558;9.970;2023-03-16T14:58:01;3.40;;;1.20;;
14766;SDS011;7475;53.558;9.970;2023-03-16T15:00:27;2.25;;;0.80;;
14766;SDS011;7475;53.558;9.970;2023-03-16T15:03:03;1.90;;;0.65;;
14766;SDS011;7475;53.558;9.970;2023-03-16T15:05:34;2.83;;;0.50;;
14766;SDS011;7475;53.558;9.970;2023-03-16T15:08:00;3.67;;;1.25;;
14766;SDS011;7475;53.558;9.970;2023-03-16T15:10:27;1.85;;;0.75;;
14766;SDS011;7475;53.558;9.970;2023-03-16T15:12:53;5.50;;;0.90;;
14766;SDS011;7475;53.558;9.970;2023-03-16T15:15:19;3.70;;;0.88;;
14766;SDS011;7475;53.558;9.970;2023-03-16T15:17:47;2.17;;;1.00;;
14766;SDS011;7475;53.558;9.970;2023-03-16T15:20:14;1.02;;;0.50;;
14766;SDS011;7475;53.558;9.970;2023-03-16T15:22:40;1.70;;;0.75;;
14766;SDS011;7475;53.558;9.970;2023-03-16T15:25:51;2.83;;;1.15;;
14766;SDS011;7475;53.558;9.970;2023-03-16T15:27:52;1.35;;;0.63;;
14766;SDS011;7475;53.558;9.970;2023-03-16T15:30:22;3.97;;;0.80;;
14766;SDS011;7475;53.558;9.970;2023-03-16T15:32:47;2.80;;;0.70;;
14766;SDS011;7475;53.558;9.970;2023-03-16T15:35:12;0.82;;;0.40;;
14766;SDS011;7475;53.558;9.970;2023-03-16T15:37:38;2.05;;;1.35;;
14766;SDS011;7475;53.558;9.970;2023-03-16T15:42:41;2.17;;;0.80;;
14766;SDS011;7475;53.558;9.970;2023-03-16T15:45:13;1.55;;;0.68;;
14766;SDS011;7475;53.558;9.970;2023-03-16T15:47:39;1.88;;;0.70;;
14766;SDS011;7475;53.558;9.970;2023-03-16T15:50:05;3.03;;;0.73;;
14766;SDS011;7475;53.558;9.970;2023-03-16T15:52:31;1.58;;;0.60;;